Station: Tasman Island  

  Atmospheric Gas Attenuation - ITU Rec 676-11   ----------------- dB/100km -----------------
Date Time Temp RH % AH g/m3 Dew Point Wind Direction Speed kph Gust kph Barometer mB Rainfall Since 9am 24GHz 47GHz 76GHz 122GHz 134GHz 241GHz
02/09 16:40 13.6 57 6.71 5.3 17 24 1001.7 0 15.6 22.6 32.1 84.1 73.7 252.2
02/09 16:30 13.5 57 6.67 5.2 17 28 1001.8 0 15.5 22.6 32.0 83.8 73.3 250.8
02/09 16:20 13.8 56 6.67 5.2 17 28 1001.9 0 15.5 22.5 31.9 83.5 73.1 249.9
02/09 16:10 14.2 54 6.59 5 17 22 1001.7 0 15.3 22.3 31.4 82.3 71.7 245.2
02/09 16:00 14.2 54 6.59 5 13 26 1001.9 0 15.3 22.3 31.4 82.3 71.7 245.3
02/09 15:50 14.4 55 6.8 5.5 15 26 1002 0 15.7 22.5 32.1 84.1 74.1 253.6
02/09 15:40 13.6 58 6.83 5.5 15 28 1002 0 15.8 22.8 32.6 85.3 75.2 257.4
02/09 15:30 13.6 57 6.71 5.3 17 28 1001.9 0 15.6 22.6 32.1 84.1 73.7 252.2
02/09 15:20 13.8 58 6.91 5.7 13 24 1002 0 16.0 22.8 32.8 85.9 76.0 260.2
02/09 15:10 14.2 56 6.84 5.6 13 24 1002 0 15.8 22.6 32.4 84.7 74.8 255.9
02/09 15:00 15.3 52 6.79 5.5 15 28 1001.9 0 15.7 22.3 31.7 83.1 73.1 250.3
02/09 14:50 15.3 54 7.05 6.1 15 26 1001.9 0 16.2 22.7 32.7 85.6 76.3 261.3
02/09 14:40 13.7 55 6.51 4.8 15 26 1002 0 15.1 22.3 31.3 82.0 71.2 243.4
02/09 14:30 14.5 54 6.72 5.3 15 28 1002.1 0 15.6 22.4 31.8 83.3 73.0 249.9
02/09 14:20 14.3 55 6.76 5.4 17 30 1002.2 0 15.7 22.5 32.0 83.9 73.7 252.2
02/09 14:10 14.4 54 6.68 5.4 17 22 1002.3 0 15.5 22.4 31.7 83.0 72.7 248.5
02/09 14:00 13.5 57 6.67 5.2 15 28 1002.3 0 15.5 22.6 32.0 83.8 73.4 250.9
02/09 13:50 13.2 56 6.43 4.8 17 20 1002.4 0 15.0 22.3 31.3 81.8 70.7 241.6
02/09 13:40 13.5 56 6.55 4.9 17 24 1002.5 0 15.2 22.4 31.6 82.7 71.9 245.8
02/09 13:30 13.7 55 6.51 4.8 17 28 1002.6 0 15.1 22.3 31.4 82.1 71.3 243.5
02/09 13:20 14.1 55 6.68 5.2 17 28 1002.8 0 15.5 22.5 31.8 83.3 73.0 249.6
02/09 13:10 14.1 56 6.8 5.4 20 28 1002.8 0 15.7 22.6 32.3 84.5 74.4 254.7
02/09 13:00 13.7 56 6.63 5.1 20 33 1003.1 0 15.4 22.5 31.8 83.3 72.8 248.8
02/09 12:50 13.8 57 6.79 5.4 20 32 1003.1 0 15.7 22.7 32.4 84.8 74.6 255.3
02/09 12:40 13.4 56 6.51 4.8 20 35 1003.2 0 15.2 22.4 31.5 82.4 71.6 244.6
02/09 12:30 13.2 56 6.43 4.6 17 32 1003.3 0 15.0 22.3 31.3 81.9 70.8 241.8
02/09 12:20 13 56 6.35 4.4 24 37 1003.5 0 14.8 22.3 31.1 81.3 70.0 239.0
02/09 12:10 13.2 56 6.43 4.6 22 35 1003.6 0 15.0 22.3 31.3 81.9 70.8 241.8
02/09 12:00 13.3 57 6.59 5 20 39 1003.8 0 15.3 22.6 31.9 83.4 72.7 248.4
02/09 11:50 12.4 57 6.23 4.1 22 35 1003.9 0 14.6 22.2 30.9 80.8 69.1 235.7
02/09 11:40 12.9 56 6.31 4.3 22 39 1003.9 0 14.7 22.2 31.0 81.0 69.6 237.7
02/09 11:30 13 56 6.35 4.4 20 35 1004.2 0 14.8 22.3 31.1 81.4 70.1 239.2
02/09 11:20 12.7 58 6.46 4.7 20 33 1004.2 0 15.1 22.5 31.6 82.8 71.7 244.8
02/09 11:10 12.3 58 6.3 4.3 19 28 1004.4 0 14.7 22.4 31.2 81.6 70.1 239.1
02/09 11:00 12.3 59 6.41 4.5 19 28 1004.5 0 15.0 22.6 31.6 82.7 71.4 243.9
02/09 10:50 12.7 60 6.68 5.1 17 26 1004.5 0 15.5 22.9 32.5 85.0 74.4 254.4
02/09 10:40 12 59 6.29 4.2 17 26 1004.5 0 14.7 22.4 31.3 81.8 70.2 239.6
02/09 10:30 11.9 60 6.36 4.4 19 33 1004.7 0 14.9 22.6 31.6 82.6 71.2 243.0
02/09 10:20 11.6 60 6.24 4.1 20 32 1004.7 0 14.6 22.5 31.3 81.7 70.0 238.7
02/09 10:10 11.8 61 6.42 4.5 17 22 1004.8 0 15.0 22.7 31.9 83.3 72.0 245.9
02/09 10:00 10.9 60 5.97 3.6 19 26 1005 0 14.1 22.3 30.5 79.8 67.3 229.1
02/09 09:50 11.3 60 6.12 3.8 17 30 1005.1 0 14.4 22.4 30.9 80.9 68.8 234.5
02/09 09:40 11.4 59 6.06 3.7 15 30 1005.1 0 14.3 22.3 30.7 80.2 68.0 231.6
02/09 09:30 11 60 6.01 3.5 19 32 1005.1 0 14.2 22.3 30.6 80.1 67.7 230.6
02/09 09:20 11 60 6.01 3.5 15 28 1005.2 0 14.2 22.3 30.6 80.1 67.7 230.6
02/09 09:10 10.6 59 5.76 2.9 19 32 1005.1 0 13.7 22.0 29.9 78.0 64.9 220.9
02/09 09:00 10.7 59 5.8 3 17 28 1005 0 13.7 22.0 30.0 78.3 65.3 222.3
02/09 08:50 10.4 60 5.78 3 17 33 1005.2 0.6 13.7 22.1 30.0 78.4 65.4 222.4
02/09 08:40 10.3 59 5.65 2.7 17 28 1005.2 0.6 13.4 21.9 29.6 77.2 63.8 217.0
02/09 08:30 10 62 5.83 3.1 15 24 1005.2 0.6 13.8 22.3 30.3 79.3 66.3 225.6
02/09 08:20 9.8 63 5.85 3.1 15 32 1005.2 0.6 13.9 22.3 30.5 79.7 66.7 227.1
02/09 08:10 9.8 64 5.94 3.3 15 28 1005.2 0.6 14.1 22.5 30.8 80.6 67.9 231.0
02/09 08:00 9 65 5.73 2.8 19 28 1005.2 0.6 13.7 22.4 30.3 79.3 65.9 224.1
02/09 07:50 9.1 65 5.77 2.9 19 30 1005.1 0.6 13.7 22.4 30.5 79.6 66.3 225.5
02/09 07:40 9.3 65 5.84 3.1 19 28 1004.9 0.6 13.9 22.4 30.6 80.1 67.0 228.0
02/09 07:30 9.2 64 5.72 2.8 19 30 1004.9 0.6 13.6 22.3 30.2 78.9 65.6 223.0
02/09 07:20 9 63 5.56 2.3 17 28 1004.8 0.6 13.3 22.1 29.7 77.5 63.8 216.6
02/09 07:10 9 62 5.47 2.1 17 28 1004.7 0.6 13.1 21.9 29.3 76.6 62.6 212.6
02/09 07:00 8.9 61 5.35 1.8 9 26 1004.6 0.6 12.8 21.8 28.9 75.5 61.2 207.7
02/09 06:50 8.7 63 5.45 2.1 6 20 1004.5 0.6 13.1 22.0 29.4 76.7 62.6 212.5
02/09 06:40 8.7 62 5.36 1.8 7 22 1004.3 0.6 12.9 21.8 29.0 75.8 61.5 208.6
02/09 06:30 8.8 61 5.31 1.7 11 30 1004 0.6 12.8 21.7 28.8 75.1 60.8 206.1
02/09 06:20 8.7 64 5.54 2.3 13 30 1004 0.6 13.3 22.1 29.7 77.5 63.7 216.4
02/09 06:10 8.7 66 5.71 2.7 17 30 1004.2 0.6 13.6 22.4 30.3 79.3 65.8 223.9
02/09 06:00 8.5 63 5.38 1.9 17 30 1004.2 0.6 12.9 21.9 29.2 76.1 61.9 209.9
02/09 05:50 8.6 63 5.42 2 17 26 1004.2 0.6 13.0 22.0 29.3 76.5 62.3 211.4
02/09 05:40 8.8 62 5.4 1.9 19 30 1004.2 0.6 13.0 21.9 29.1 76.1 61.9 210.0
02/09 05:30 8.7 63 5.45 2.1 13 28 1004.3 0.6 13.1 22.0 29.4 76.7 62.6 212.5
02/09 05:20 8.7 62 5.36 1.8 13 30 1004.1 0.6 12.9 21.8 29.0 75.7 61.5 208.5
02/09 05:10 8.7 61 5.28 1.6 13 30 1004.1 0.6 12.7 21.7 28.7 74.9 60.5 205.1
02/09 05:00 8.7 61 5.28 1.6 13 28 1004 0.6 12.7 21.7 28.7 74.9 60.5 205.0
02/09 04:50 8.8 61 5.31 1.7 9 28 1004 0.6 12.8 21.7 28.8 75.1 60.8 206.1
02/09 04:40 8.9 61 5.35 1.8 11 26 1004 0.6 12.8 21.8 28.9 75.4 61.2 207.6
02/09 04:30 8.9 60 5.26 1.6 17 33 1003.9 0.6 12.6 21.6 28.6 74.5 60.1 203.7
02/09 04:20 8.9 64 5.61 2.5 19 32 1003.9 0.6 13.4 22.2 29.9 78.0 64.4 218.9
02/09 04:10 9.1 64 5.68 2.7 11 28 1003.8 0.6 13.5 22.2 30.1 78.5 65.1 221.3
02/09 04:00 9.2 63 5.63 2.5 13 28 1003.8 0.6 13.4 22.1 29.8 77.9 64.4 218.9
02/09 03:50 9.1 61 5.41 2 15 32 1003.7 0.6 13.0 21.8 29.0 75.8 61.8 209.6
02/09 03:40 9.1 59 5.24 1.5 13 30 1003.6 0.6 12.6 21.5 28.4 74.1 59.7 202.2
02/09 03:30 9.1 60 5.33 1.8 13 35 1003.4 0.6 12.8 21.7 28.7 75.0 60.8 206.1
02/09 03:20 9.1 60 5.33 1.8 7 26 1003.5 0.6 12.8 21.7 28.7 75.0 60.8 206.1
02/09 03:10 9.2 60 5.36 1.9 11 28 1003.6 0.6 12.9 21.7 28.8 75.2 61.1 207.1
02/09 03:00 9.1 62 5.5 2.2 6 22 1003.6 0.6 13.2 21.9 29.4 76.7 62.9 213.5
02/09 02:50 9.2 62 5.54 2.3 7 30 1003.5 0.6 13.2 22.0 29.5 77.0 63.3 214.9
02/09 02:40 9.2 60 5.36 1.9 11 30 1003.5 0.6 12.9 21.7 28.8 75.2 61.1 207.1
02/09 02:30 9.4 62 5.61 2.5 13 39 1003.4 0.6 13.4 22.0 29.7 77.5 64.0 217.4
02/09 02:20 9.4 64 5.79 2.9 13 30 1003.6 0.6 13.8 22.3 30.4 79.3 66.2 225.3
02/09 02:10 9.6 63 5.77 2.9 13 28 1003.7 0.6 13.7 22.2 30.2 78.9 65.8 223.9
02/09 02:00 9.7 61 5.63 2.6 7 26 1003.8 0.6 13.4 22.0 29.7 77.5 64.0 217.5
02/09 01:50 9.7 61 5.63 2.7 13 22 1003.5 0.6 13.4 22.0 29.6 77.4 64.0 217.5
02/09 01:40 9.5 61 5.55 2.4 9 35 1003 0.6 13.2 21.9 29.4 76.8 63.1 214.4
02/09 01:30 9.5 61 5.55 2.4 11 24 1003 0.6 13.2 21.9 29.4 76.8 63.1 214.4
02/09 01:20 9.4 62 5.61 2.5 7 22 1003.1 0.6 13.4 22.0 29.7 77.5 64.0 217.3
02/09 01:10 9.5 77 7.01 5.7 11 26 1003.2 0.6 16.4 24.2 35.0 91.8 81.7 279.6
02/09 01:00 9.5 77 7.01 5.7 15 32 1003.3 0.6 16.4 24.2 35.0 91.8 81.7 279.6
02/09 00:50 9.5 79 7.19 6 9 28 1003.1 0.6 16.8 24.4 35.7 93.7 84.1 287.8
02/09 00:40 9.5 79 7.19 6 13 28 1003.1 0.6 16.8 24.4 35.7 93.7 84.1 287.8
02/09 00:30 9.6 79 7.24 6.1 13 26 1003.2 0.6 16.9 24.5 35.9 94.2 84.6 289.8
02/09 00:20 9.5 80 7.28 6.2 9 24 1003.2 0.6 17.0 24.6 36.1 94.7 85.3 292.0
02/09 00:10 9.6 83 7.61 6.9 9 26 1003.2 0.6 17.7 25.1 37.4 98.1 89.5 307.0

Last Refresh: 02-Sep-2026 16:21:15

Bureau of Meteorology